sensor_id;sensor_type;location;lat;lon;timestamp;P1;durP1;ratioP1;P2;durP2;ratioP2
32705;SDS011;19094;50.972;3.538;2022-10-16T00:01:22;0.90;;;0.73;;
32705;SDS011;19094;50.972;3.538;2022-10-16T00:03:49;3.53;;;0.75;;
32705;SDS011;19094;50.972;3.538;2022-10-16T00:06:17;1.65;;;0.60;;
32705;SDS011;19094;50.972;3.538;2022-10-16T00:08:44;2.20;;;0.82;;
32705;SDS011;19094;50.972;3.538;2022-10-16T00:11:12;2.55;;;1.20;;
32705;SDS011;19094;50.972;3.538;2022-10-16T00:13:41;1.98;;;1.00;;
32705;SDS011;19094;50.972;3.538;2022-10-16T00:16:10;1.60;;;0.93;;
32705;SDS011;19094;50.972;3.538;2022-10-16T00:18:37;4.03;;;1.00;;
32705;SDS011;19094;50.972;3.538;2022-10-16T00:21:04;1.50;;;0.75;;
32705;SDS011;19094;50.972;3.538;2022-10-16T00:23:31;2.25;;;0.70;;
32705;SDS011;19094;50.972;3.538;2022-10-16T00:25:58;3.22;;;1.00;;
32705;SDS011;19094;50.972;3.538;2022-10-16T00:28:26;2.45;;;0.73;;
32705;SDS011;19094;50.972;3.538;2022-10-16T00:30:52;0.98;;;0.75;;
32705;SDS011;19094;50.972;3.538;2022-10-16T00:33:18;2.53;;;0.82;;
32705;SDS011;19094;50.972;3.538;2022-10-16T00:35:46;3.10;;;0.80;;
32705;SDS011;19094;50.972;3.538;2022-10-16T00:38:11;5.68;;;1.00;;
32705;SDS011;19094;50.972;3.538;2022-10-16T00:40:39;1.90;;;0.82;;
32705;SDS011;19094;50.972;3.538;2022-10-16T00:43:32;2.60;;;0.95;;
32705;SDS011;19094;50.972;3.538;2022-10-16T00:46:25;3.13;;;1.00;;
32705;SDS011;19094;50.972;3.538;2022-10-16T00:49:03;2.30;;;1.00;;
32705;SDS011;19094;50.972;3.538;2022-10-16T00:51:34;1.80;;;0.90;;
32705;SDS011;19094;50.972;3.538;2022-10-16T00:54:02;2.33;;;0.95;;
32705;SDS011;19094;50.972;3.538;2022-10-16T00:56:32;1.67;;;0.93;;
32705;SDS011;19094;50.972;3.538;2022-10-16T00:58:58;1.27;;;0.90;;
32705;SDS011;19094;50.972;3.538;2022-10-16T01:01:26;1.88;;;0.93;;
32705;SDS011;19094;50.972;3.538;2022-10-16T01:03:52;2.05;;;0.93;;
32705;SDS011;19094;50.972;3.538;2022-10-16T01:06:25;1.75;;;0.90;;
32705;SDS011;19094;50.972;3.538;2022-10-16T01:09:07;3.67;;;0.90;;
32705;SDS011;19094;50.972;3.538;2022-10-16T01:11:54;1.80;;;0.90;;
32705;SDS011;19094;50.972;3.538;2022-10-16T01:17:28;1.45;;;0.90;;
32705;SDS011;19094;50.972;3.538;2022-10-16T01:23:02;1.42;;;1.08;;
32705;SDS011;19094;50.972;3.538;2022-10-16T01:28:21;9.13;;;1.23;;
32705;SDS011;19094;50.972;3.538;2022-10-16T01:30:53;2.30;;;1.02;;
32705;SDS011;19094;50.972;3.538;2022-10-16T01:33:56;2.60;;;1.02;;
32705;SDS011;19094;50.972;3.538;2022-10-16T01:36:25;1.50;;;0.98;;
32705;SDS011;19094;50.972;3.538;2022-10-16T01:39:01;1.23;;;0.93;;
32705;SDS011;19094;50.972;3.538;2022-10-16T01:41:30;2.50;;;0.82;;
32705;SDS011;19094;50.972;3.538;2022-10-16T01:46:38;5.70;;;1.20;;
32705;SDS011;19094;50.972;3.538;2022-10-16T01:49:07;4.38;;;1.60;;
32705;SDS011;19094;50.972;3.538;2022-10-16T01:51:35;4.25;;;1.58;;
32705;SDS011;19094;50.972;3.538;2022-10-16T01:54:02;3.95;;;1.55;;
32705;SDS011;19094;50.972;3.538;2022-10-16T01:56:31;4.88;;;1.13;;
32705;SDS011;19094;50.972;3.538;2022-10-16T02:01:31;4.50;;;1.20;;
32705;SDS011;19094;50.972;3.538;2022-10-16T02:04:07;1.95;;;1.27;;
32705;SDS011;19094;50.972;3.538;2022-10-16T02:06:38;5.72;;;1.50;;
32705;SDS011;19094;50.972;3.538;2022-10-16T02:09:04;3.25;;;1.17;;
32705;SDS011;19094;50.972;3.538;2022-10-16T02:11:29;2.50;;;1.23;;
32705;SDS011;19094;50.972;3.538;2022-10-16T02:13:58;2.03;;;1.20;;
32705;SDS011;19094;50.972;3.538;2022-10-16T02:16:33;2.60;;;1.23;;
32705;SDS011;19094;50.972;3.538;2022-10-16T02:19:04;2.30;;;0.93;;
32705;SDS011;19094;50.972;3.538;2022-10-16T02:21:33;2.17;;;1.15;;
32705;SDS011;19094;50.972;3.538;2022-10-16T02:24:28;3.08;;;1.38;;
32705;SDS011;19094;50.972;3.538;2022-10-16T02:33:06;2.20;;;1.02;;
32705;SDS011;19094;50.972;3.538;2022-10-16T02:35:34;2.60;;;1.10;;
32705;SDS011;19094;50.972;3.538;2022-10-16T02:38:01;4.30;;;1.10;;
32705;SDS011;19094;50.972;3.538;2022-10-16T02:40:28;4.32;;;1.10;;
32705;SDS011;19094;50.972;3.538;2022-10-16T02:42:54;1.58;;;1.02;;
32705;SDS011;19094;50.972;3.538;2022-10-16T02:45:20;4.13;;;1.42;;
32705;SDS011;19094;50.972;3.538;2022-10-16T02:47:48;2.92;;;1.10;;
32705;SDS011;19094;50.972;3.538;2022-10-16T02:50:14;4.40;;;0.98;;
32705;SDS011;19094;50.972;3.538;2022-10-16T02:52:41;3.92;;;1.40;;
32705;SDS011;19094;50.972;3.538;2022-10-16T02:55:07;3.25;;;1.40;;
32705;SDS011;19094;50.972;3.538;2022-10-16T02:57:33;5.55;;;1.42;;
32705;SDS011;19094;50.972;3.538;2022-10-16T02:59:58;2.25;;;1.02;;
32705;SDS011;19094;50.972;3.538;2022-10-16T03:02:24;4.57;;;1.15;;
32705;SDS011;19094;50.972;3.538;2022-10-16T03:04:50;6.32;;;1.25;;
32705;SDS011;19094;50.972;3.538;2022-10-16T03:07:15;2.65;;;1.23;;
32705;SDS011;19094;50.972;3.538;2022-10-16T03:09:41;4.85;;;1.10;;
32705;SDS011;19094;50.972;3.538;2022-10-16T03:12:07;2.95;;;1.20;;
32705;SDS011;19094;50.972;3.538;2022-10-16T03:14:33;5.55;;;1.25;;
32705;SDS011;19094;50.972;3.538;2022-10-16T03:16:59;2.78;;;1.42;;
32705;SDS011;19094;50.972;3.538;2022-10-16T03:19:25;4.45;;;1.50;;
32705;SDS011;19094;50.972;3.538;2022-10-16T03:21:50;4.28;;;1.40;;
32705;SDS011;19094;50.972;3.538;2022-10-16T03:24:16;4.55;;;1.40;;
32705;SDS011;19094;50.972;3.538;2022-10-16T03:26:42;2.85;;;1.20;;
32705;SDS011;19094;50.972;3.538;2022-10-16T03:29:07;8.18;;;1.50;;
32705;SDS011;19094;50.972;3.538;2022-10-16T03:31:33;4.15;;;1.20;;
32705;SDS011;19094;50.972;3.538;2022-10-16T03:33:59;3.38;;;1.20;;
32705;SDS011;19094;50.972;3.538;2022-10-16T03:36:24;2.05;;;1.02;;
32705;SDS011;19094;50.972;3.538;2022-10-16T03:38:50;2.95;;;1.38;;
32705;SDS011;19094;50.972;3.538;2022-10-16T03:41:15;6.85;;;1.80;;
32705;SDS011;19094;50.972;3.538;2022-10-16T03:43:41;4.25;;;1.23;;
32705;SDS011;19094;50.972;3.538;2022-10-16T03:46:08;4.40;;;1.40;;
32705;SDS011;19094;50.972;3.538;2022-10-16T03:48:35;2.55;;;1.40;;
32705;SDS011;19094;50.972;3.538;2022-10-16T03:51:00;4.68;;;1.25;;
32705;SDS011;19094;50.972;3.538;2022-10-16T03:53:27;3.35;;;1.30;;
32705;SDS011;19094;50.972;3.538;2022-10-16T03:55:53;2.72;;;1.30;;
32705;SDS011;19094;50.972;3.538;2022-10-16T03:58:20;4.75;;;1.40;;
32705;SDS011;19094;50.972;3.538;2022-10-16T04:00:46;2.42;;;1.23;;
32705;SDS011;19094;50.972;3.538;2022-10-16T04:03:16;2.40;;;1.40;;
32705;SDS011;19094;50.972;3.538;2022-10-16T04:05:44;6.05;;;1.38;;
32705;SDS011;19094;50.972;3.538;2022-10-16T04:08:10;4.10;;;1.35;;
32705;SDS011;19094;50.972;3.538;2022-10-16T04:10:35;6.97;;;1.58;;
32705;SDS011;19094;50.972;3.538;2022-10-16T04:13:02;6.22;;;1.77;;
32705;SDS011;19094;50.972;3.538;2022-10-16T04:15:28;2.50;;;1.40;;
32705;SDS011;19094;50.972;3.538;2022-10-16T04:17:54;3.13;;;1.40;;
32705;SDS011;19094;50.972;3.538;2022-10-16T04:20:19;3.63;;;1.42;;
32705;SDS011;19094;50.972;3.538;2022-10-16T04:22:45;3.30;;;1.45;;
32705;SDS011;19094;50.972;3.538;2022-10-16T04:25:12;5.15;;;1.65;;
32705;SDS011;19094;50.972;3.538;2022-10-16T04:27:38;2.85;;;1.40;;
32705;SDS011;19094;50.972;3.538;2022-10-16T04:30:04;3.55;;;1.17;;
32705;SDS011;19094;50.972;3.538;2022-10-16T04:32:30;4.03;;;1.35;;
32705;SDS011;19094;50.972;3.538;2022-10-16T04:34:56;2.60;;;1.52;;
32705;SDS011;19094;50.972;3.538;2022-10-16T04:37:25;2.60;;;1.30;;
32705;SDS011;19094;50.972;3.538;2022-10-16T04:39:52;4.00;;;1.50;;
32705;SDS011;19094;50.972;3.538;2022-10-16T04:42:18;4.22;;;1.80;;
32705;SDS011;19094;50.972;3.538;2022-10-16T04:44:44;4.22;;;1.88;;
32705;SDS011;19094;50.972;3.538;2022-10-16T04:47:09;3.25;;;1.58;;
32705;SDS011;19094;50.972;3.538;2022-10-16T04:49:35;4.20;;;1.80;;
32705;SDS011;19094;50.972;3.538;2022-10-16T04:52:02;5.82;;;1.30;;
32705;SDS011;19094;50.972;3.538;2022-10-16T04:54:28;6.00;;;1.65;;
32705;SDS011;19094;50.972;3.538;2022-10-16T04:56:54;3.95;;;1.30;;
32705;SDS011;19094;50.972;3.538;2022-10-16T04:59:21;2.95;;;1.60;;
32705;SDS011;19094;50.972;3.538;2022-10-16T05:01:48;4.07;;;2.00;;
32705;SDS011;19094;50.972;3.538;2022-10-16T05:04:14;6.80;;;1.67;;
32705;SDS011;19094;50.972;3.538;2022-10-16T05:06:42;7.10;;;1.60;;
32705;SDS011;19094;50.972;3.538;2022-10-16T05:09:07;4.90;;;1.45;;
32705;SDS011;19094;50.972;3.538;2022-10-16T05:11:33;7.03;;;1.92;;
32705;SDS011;19094;50.972;3.538;2022-10-16T05:13:59;3.70;;;1.55;;
32705;SDS011;19094;50.972;3.538;2022-10-16T05:16:25;2.60;;;1.60;;
32705;SDS011;19094;50.972;3.538;2022-10-16T05:18:51;8.10;;;1.55;;
32705;SDS011;19094;50.972;3.538;2022-10-16T05:21:18;4.28;;;1.40;;
32705;SDS011;19094;50.972;3.538;2022-10-16T05:23:45;3.70;;;1.60;;
32705;SDS011;19094;50.972;3.538;2022-10-16T05:26:11;6.60;;;1.90;;
32705;SDS011;19094;50.972;3.538;2022-10-16T05:28:37;5.22;;;2.08;;
32705;SDS011;19094;50.972;3.538;2022-10-16T05:31:06;10.65;;;1.65;;
32705;SDS011;19094;50.972;3.538;2022-10-16T05:33:33;4.75;;;1.52;;
32705;SDS011;19094;50.972;3.538;2022-10-16T05:36:01;4.15;;;1.83;;
32705;SDS011;19094;50.972;3.538;2022-10-16T05:38:28;4.80;;;1.52;;
32705;SDS011;19094;50.972;3.538;2022-10-16T05:40:54;5.00;;;2.17;;
32705;SDS011;19094;50.972;3.538;2022-10-16T05:43:20;3.83;;;1.90;;
32705;SDS011;19094;50.972;3.538;2022-10-16T05:46:03;3.55;;;1.80;;
32705;SDS011;19094;50.972;3.538;2022-10-16T05:48:29;9.43;;;2.00;;
32705;SDS011;19094;50.972;3.538;2022-10-16T05:50:59;5.80;;;2.00;;
32705;SDS011;19094;50.972;3.538;2022-10-16T05:53:28;7.35;;;2.13;;
32705;SDS011;19094;50.972;3.538;2022-10-16T05:55:55;4.90;;;1.90;;
32705;SDS011;19094;50.972;3.538;2022-10-16T05:58:21;6.35;;;1.90;;
32705;SDS011;19094;50.972;3.538;2022-10-16T06:01:21;5.57;;;1.95;;
32705;SDS011;19094;50.972;3.538;2022-10-16T06:03:43;7.88;;;1.92;;
32705;SDS011;19094;50.972;3.538;2022-10-16T06:06:13;3.60;;;1.80;;
32705;SDS011;19094;50.972;3.538;2022-10-16T06:08:41;10.32;;;2.35;;
32705;SDS011;19094;50.972;3.538;2022-10-16T06:11:09;6.15;;;1.80;;
32705;SDS011;19094;50.972;3.538;2022-10-16T06:13:36;3.90;;;1.60;;
32705;SDS011;19094;50.972;3.538;2022-10-16T06:16:04;3.20;;;1.48;;
32705;SDS011;19094;50.972;3.538;2022-10-16T06:18:30;4.50;;;1.70;;
32705;SDS011;19094;50.972;3.538;2022-10-16T06:20:56;6.35;;;2.08;;
32705;SDS011;19094;50.972;3.538;2022-10-16T06:23:25;3.17;;;1.58;;
32705;SDS011;19094;50.972;3.538;2022-10-16T06:25:51;8.52;;;2.13;;
32705;SDS011;19094;50.972;3.538;2022-10-16T06:28:16;6.40;;;1.80;;
32705;SDS011;19094;50.972;3.538;2022-10-16T06:30:42;6.05;;;1.90;;
32705;SDS011;19094;50.972;3.538;2022-10-16T06:33:11;8.57;;;2.25;;
32705;SDS011;19094;50.972;3.538;2022-10-16T06:35:37;12.32;;;2.10;;
32705;SDS011;19094;50.972;3.538;2022-10-16T06:38:02;5.75;;;2.00;;
32705;SDS011;19094;50.972;3.538;2022-10-16T06:40:28;5.50;;;2.10;;
32705;SDS011;19094;50.972;3.538;2022-10-16T06:42:57;7.47;;;2.38;;
32705;SDS011;19094;50.972;3.538;2022-10-16T06:45:22;3.83;;;1.70;;
32705;SDS011;19094;50.972;3.538;2022-10-16T06:47:48;5.32;;;1.80;;
32705;SDS011;19094;50.972;3.538;2022-10-16T06:50:15;10.88;;;2.15;;
32705;SDS011;19094;50.972;3.538;2022-10-16T06:52:40;4.43;;;2.00;;
32705;SDS011;19094;50.972;3.538;2022-10-16T06:55:06;5.18;;;1.63;;
32705;SDS011;19094;50.972;3.538;2022-10-16T06:57:32;4.45;;;1.70;;
32705;SDS011;19094;50.972;3.538;2022-10-16T07:00:01;5.93;;;1.75;;
32705;SDS011;19094;50.972;3.538;2022-10-16T07:02:27;3.38;;;2.03;;
32705;SDS011;19094;50.972;3.538;2022-10-16T07:04:52;7.13;;;1.60;;
32705;SDS011;19094;50.972;3.538;2022-10-16T07:07:18;11.30;;;2.13;;
32705;SDS011;19094;50.972;3.538;2022-10-16T07:09:44;4.80;;;1.88;;
32705;SDS011;19094;50.972;3.538;2022-10-16T07:12:09;4.45;;;1.73;;
32705;SDS011;19094;50.972;3.538;2022-10-16T07:14:35;6.43;;;1.80;;
32705;SDS011;19094;50.972;3.538;2022-10-16T07:17:01;3.92;;;1.50;;
32705;SDS011;19094;50.972;3.538;2022-10-16T07:19:27;8.15;;;1.48;;
32705;SDS011;19094;50.972;3.538;2022-10-16T07:21:53;7.85;;;1.67;;
32705;SDS011;19094;50.972;3.538;2022-10-16T07:24:19;4.00;;;1.73;;
32705;SDS011;19094;50.972;3.538;2022-10-16T07:26:45;10.13;;;2.08;;
32705;SDS011;19094;50.972;3.538;2022-10-16T07:29:12;3.78;;;1.73;;
32705;SDS011;19094;50.972;3.538;2022-10-16T07:31:40;9.95;;;2.67;;
32705;SDS011;19094;50.972;3.538;2022-10-16T07:34:06;4.57;;;2.50;;
32705;SDS011;19094;50.972;3.538;2022-10-16T07:36:31;11.07;;;2.40;;
32705;SDS011;19094;50.972;3.538;2022-10-16T07:38:59;4.70;;;2.53;;
32705;SDS011;19094;50.972;3.538;2022-10-16T07:41:24;4.15;;;2.00;;
32705;SDS011;19094;50.972;3.538;2022-10-16T07:43:51;4.30;;;2.05;;
32705;SDS011;19094;50.972;3.538;2022-10-16T07:46:18;6.40;;;2.00;;
32705;SDS011;19094;50.972;3.538;2022-10-16T07:48:46;6.57;;;1.77;;
32705;SDS011;19094;50.972;3.538;2022-10-16T07:51:17;6.38;;;2.20;;
32705;SDS011;19094;50.972;3.538;2022-10-16T07:53:44;9.27;;;2.80;;
32705;SDS011;19094;50.972;3.538;2022-10-16T07:56:10;6.72;;;2.20;;
32705;SDS011;19094;50.972;3.538;2022-10-16T07:58:36;12.10;;;2.20;;
32705;SDS011;19094;50.972;3.538;2022-10-16T08:01:11;10.02;;;2.55;;
32705;SDS011;19094;50.972;3.538;2022-10-16T08:03:41;7.15;;;2.03;;
32705;SDS011;19094;50.972;3.538;2022-10-16T08:06:11;6.70;;;2.10;;
32705;SDS011;19094;50.972;3.538;2022-10-16T08:08:37;7.90;;;2.10;;
32705;SDS011;19094;50.972;3.538;2022-10-16T08:11:04;9.35;;;2.08;;
32705;SDS011;19094;50.972;3.538;2022-10-16T08:13:30;11.68;;;3.10;;
32705;SDS011;19094;50.972;3.538;2022-10-16T08:15:56;6.57;;;2.78;;
32705;SDS011;19094;50.972;3.538;2022-10-16T08:18:22;8.65;;;2.50;;
32705;SDS011;19094;50.972;3.538;2022-10-16T08:20:48;10.02;;;2.88;;
32705;SDS011;19094;50.972;3.538;2022-10-16T08:23:20;10.80;;;2.90;;
32705;SDS011;19094;50.972;3.538;2022-10-16T08:25:46;12.57;;;2.35;;
32705;SDS011;19094;50.972;3.538;2022-10-16T08:28:13;18.77;;;2.30;;
32705;SDS011;19094;50.972;3.538;2022-10-16T08:30:38;9.43;;;2.15;;
32705;SDS011;19094;50.972;3.538;2022-10-16T08:33:05;7.82;;;2.03;;
32705;SDS011;19094;50.972;3.538;2022-10-16T08:35:31;8.52;;;2.33;;
32705;SDS011;19094;50.972;3.538;2022-10-16T08:37:58;5.03;;;2.30;;
32705;SDS011;19094;50.972;3.538;2022-10-16T08:40:26;11.40;;;2.63;;
32705;SDS011;19094;50.972;3.538;2022-10-16T08:48:45;6.80;;;1.85;;
32705;SDS011;19094;50.972;3.538;2022-10-16T08:53:53;7.57;;;2.15;;
32705;SDS011;19094;50.972;3.538;2022-10-16T08:56:22;5.25;;;1.92;;
32705;SDS011;19094;50.972;3.538;2022-10-16T08:58:48;11.93;;;1.75;;
32705;SDS011;19094;50.972;3.538;2022-10-16T09:01:16;18.27;;;2.65;;
32705;SDS011;19094;50.972;3.538;2022-10-16T09:12:07;105.35;;;7.72;;
32705;SDS011;19094;50.972;3.538;2022-10-16T09:22:37;8.15;;;2.75;;
32705;SDS011;19094;50.972;3.538;2022-10-16T09:25:11;4.43;;;1.65;;
32705;SDS011;19094;50.972;3.538;2022-10-16T09:27:39;4.93;;;1.92;;
32705;SDS011;19094;50.972;3.538;2022-10-16T09:30:13;9.20;;;2.22;;
32705;SDS011;19094;50.972;3.538;2022-10-16T09:32:41;5.97;;;1.50;;
32705;SDS011;19094;50.972;3.538;2022-10-16T09:35:13;5.90;;;1.75;;
32705;SDS011;19094;50.972;3.538;2022-10-16T09:37:44;4.60;;;1.63;;
32705;SDS011;19094;50.972;3.538;2022-10-16T09:49:00;9.98;;;2.22;;
32705;SDS011;19094;50.972;3.538;2022-10-16T09:51:30;9.93;;;1.83;;
32705;SDS011;19094;50.972;3.538;2022-10-16T09:56:32;17.15;;;2.42;;
32705;SDS011;19094;50.972;3.538;2022-10-16T09:59:02;13.82;;;2.30;;
32705;SDS011;19094;50.972;3.538;2022-10-16T10:01:36;7.35;;;1.95;;
32705;SDS011;19094;50.972;3.538;2022-10-16T10:04:04;6.70;;;1.50;;
32705;SDS011;19094;50.972;3.538;2022-10-16T10:07:33;14.07;;;2.08;;
32705;SDS011;19094;50.972;3.538;2022-10-16T10:09:28;10.13;;;1.80;;
32705;SDS011;19094;50.972;3.538;2022-10-16T10:11:59;16.85;;;2.75;;
32705;SDS011;19094;50.972;3.538;2022-10-16T10:19:53;10.77;;;2.17;;
32705;SDS011;19094;50.972;3.538;2022-10-16T10:22:27;14.00;;;1.90;;
32705;SDS011;19094;50.972;3.538;2022-10-16T10:24:57;9.02;;;1.60;;
32705;SDS011;19094;50.972;3.538;2022-10-16T10:39:16;13.43;;;2.08;;
32705;SDS011;19094;50.972;3.538;2022-10-16T10:42:12;13.20;;;2.58;;
32705;SDS011;19094;50.972;3.538;2022-10-16T10:45:17;12.13;;;2.25;;
32705;SDS011;19094;50.972;3.538;2022-10-16T11:09:37;14.70;;;1.90;;
32705;SDS011;19094;50.972;3.538;2022-10-16T11:14:58;8.70;;;1.65;;
32705;SDS011;19094;50.972;3.538;2022-10-16T11:17:39;8.88;;;1.67;;
32705;SDS011;19094;50.972;3.538;2022-10-16T11:22:53;11.15;;;2.40;;
32705;SDS011;19094;50.972;3.538;2022-10-16T11:25:22;13.63;;;3.33;;
32705;SDS011;19094;50.972;3.538;2022-10-16T11:27:53;8.48;;;2.08;;
32705;SDS011;19094;50.972;3.538;2022-10-16T11:30:42;10.40;;;2.08;;
32705;SDS011;19094;50.972;3.538;2022-10-16T11:41:37;9.60;;;1.40;;
32705;SDS011;19094;50.972;3.538;2022-10-16T11:44:16;7.00;;;1.70;;
32705;SDS011;19094;50.972;3.538;2022-10-16T11:49:58;8.32;;;2.08;;
32705;SDS011;19094;50.972;3.538;2022-10-16T11:52:52;8.77;;;2.10;;
32705;SDS011;19094;50.972;3.538;2022-10-16T11:55:43;5.38;;;1.63;;
32705;SDS011;19094;50.972;3.538;2022-10-16T11:58:27;5.95;;;1.60;;
32705;SDS011;19094;50.972;3.538;2022-10-16T12:01:00;9.82;;;1.80;;
32705;SDS011;19094;50.972;3.538;2022-10-16T12:06:46;6.13;;;1.65;;
32705;SDS011;19094;50.972;3.538;2022-10-16T12:09:32;5.57;;;1.23;;
32705;SDS011;19094;50.972;3.538;2022-10-16T12:12:00;7.97;;;1.58;;
32705;SDS011;19094;50.972;3.538;2022-10-16T12:19:57;4.20;;;1.17;;
32705;SDS011;19094;50.972;3.538;2022-10-16T12:23:00;7.03;;;1.55;;
32705;SDS011;19094;50.972;3.538;2022-10-16T12:25:31;6.82;;;1.52;;
32705;SDS011;19094;50.972;3.538;2022-10-16T12:30:55;11.30;;;2.08;;
32705;SDS011;19094;50.972;3.538;2022-10-16T12:33:27;7.82;;;1.52;;
32705;SDS011;19094;50.972;3.538;2022-10-16T12:35:58;8.13;;;1.63;;
32705;SDS011;19094;50.972;3.538;2022-10-16T12:38:36;3.50;;;1.10;;
32705;SDS011;19094;50.972;3.538;2022-10-16T12:41:11;5.18;;;1.20;;
32705;SDS011;19094;50.972;3.538;2022-10-16T12:43:41;7.38;;;0.80;;
32705;SDS011;19094;50.972;3.538;2022-10-16T12:48:34;5.40;;;1.35;;
32705;SDS011;19094;50.972;3.538;2022-10-16T12:53:58;8.38;;;1.00;;
32705;SDS011;19094;50.972;3.538;2022-10-16T13:04:47;5.38;;;0.95;;
32705;SDS011;19094;50.972;3.538;2022-10-16T13:15:27;4.10;;;1.10;;
32705;SDS011;19094;50.972;3.538;2022-10-16T13:18:16;4.53;;;1.88;;
32705;SDS011;19094;50.972;3.538;2022-10-16T13:29:22;7.95;;;2.70;;
32705;SDS011;19094;50.972;3.538;2022-10-16T13:31:50;5.30;;;3.20;;
32705;SDS011;19094;50.972;3.538;2022-10-16T13:34:17;5.53;;;1.80;;
32705;SDS011;19094;50.972;3.538;2022-10-16T13:36:47;8.10;;;1.70;;
32705;SDS011;19094;50.972;3.538;2022-10-16T13:39:19;7.40;;;1.50;;
32705;SDS011;19094;50.972;3.538;2022-10-16T13:41:46;4.35;;;2.13;;
32705;SDS011;19094;50.972;3.538;2022-10-16T13:44:24;7.63;;;2.30;;
32705;SDS011;19094;50.972;3.538;2022-10-16T13:46:58;7.25;;;2.10;;
32705;SDS011;19094;50.972;3.538;2022-10-16T13:51:57;2.08;;;1.13;;
32705;SDS011;19094;50.972;3.538;2022-10-16T13:54:25;3.35;;;1.40;;
32705;SDS011;19094;50.972;3.538;2022-10-16T13:56:54;3.95;;;1.70;;
32705;SDS011;19094;50.972;3.538;2022-10-16T13:59:33;2.13;;;1.00;;
32705;SDS011;19094;50.972;3.538;2022-10-16T14:02:00;7.95;;;0.80;;
32705;SDS011;19094;50.972;3.538;2022-10-16T14:04:33;4.97;;;1.13;;
32705;SDS011;19094;50.972;3.538;2022-10-16T14:07:04;4.82;;;1.13;;
32705;SDS011;19094;50.972;3.538;2022-10-16T14:09:31;2.88;;;0.70;;
32705;SDS011;19094;50.972;3.538;2022-10-16T14:12:00;5.40;;;1.05;;
32705;SDS011;19094;50.972;3.538;2022-10-16T14:14:35;3.17;;;0.93;;
32705;SDS011;19094;50.972;3.538;2022-10-16T14:17:12;4.55;;;1.00;;
32705;SDS011;19094;50.972;3.538;2022-10-16T14:19:45;1.75;;;0.63;;
32705;SDS011;19094;50.972;3.538;2022-10-16T14:24:50;1.98;;;0.95;;
32705;SDS011;19094;50.972;3.538;2022-10-16T14:30:20;3.75;;;1.30;;
32705;SDS011;19094;50.972;3.538;2022-10-16T14:35:59;3.88;;;0.80;;
32705;SDS011;19094;50.972;3.538;2022-10-16T14:38:30;1.55;;;0.52;;
32705;SDS011;19094;50.972;3.538;2022-10-16T14:40:57;7.20;;;1.30;;
32705;SDS011;19094;50.972;3.538;2022-10-16T14:43:37;4.40;;;1.02;;
32705;SDS011;19094;50.972;3.538;2022-10-16T14:46:47;3.22;;;0.80;;
32705;SDS011;19094;50.972;3.538;2022-10-16T14:49:02;5.72;;;0.95;;
32705;SDS011;19094;50.972;3.538;2022-10-16T14:51:41;2.40;;;0.70;;
32705;SDS011;19094;50.972;3.538;2022-10-16T14:54:09;3.58;;;1.05;;
32705;SDS011;19094;50.972;3.538;2022-10-16T14:56:46;4.97;;;1.15;;
32705;SDS011;19094;50.972;3.538;2022-10-16T14:59:39;3.25;;;0.85;;
32705;SDS011;19094;50.972;3.538;2022-10-16T15:02:30;11.40;;;3.70;;
32705;SDS011;19094;50.972;3.538;2022-10-16T15:04:56;9.93;;;3.05;;
32705;SDS011;19094;50.972;3.538;2022-10-16T15:07:23;3.60;;;1.27;;
32705;SDS011;19094;50.972;3.538;2022-10-16T15:09:50;3.05;;;1.15;;
32705;SDS011;19094;50.972;3.538;2022-10-16T15:12:16;4.45;;;1.52;;
32705;SDS011;19094;50.972;3.538;2022-10-16T15:14:42;3.63;;;1.27;;
32705;SDS011;19094;50.972;3.538;2022-10-16T15:17:10;6.15;;;1.90;;
32705;SDS011;19094;50.972;3.538;2022-10-16T15:19:36;9.68;;;1.77;;
32705;SDS011;19094;50.972;3.538;2022-10-16T15:22:01;23.17;;;9.52;;
32705;SDS011;19094;50.972;3.538;2022-10-16T15:24:27;20.55;;;8.98;;
32705;SDS011;19094;50.972;3.538;2022-10-16T15:26:53;25.08;;;13.48;;
32705;SDS011;19094;50.972;3.538;2022-10-16T15:29:18;13.27;;;6.85;;
32705;SDS011;19094;50.972;3.538;2022-10-16T15:31:44;9.38;;;2.78;;
32705;SDS011;19094;50.972;3.538;2022-10-16T15:34:12;7.13;;;3.00;;
32705;SDS011;19094;50.972;3.538;2022-10-16T15:36:38;13.15;;;7.28;;
32705;SDS011;19094;50.972;3.538;2022-10-16T15:39:11;17.40;;;4.68;;
32705;SDS011;19094;50.972;3.538;2022-10-16T15:41:39;5.90;;;1.75;;
32705;SDS011;19094;50.972;3.538;2022-10-16T15:44:04;7.07;;;2.03;;
32705;SDS011;19094;50.972;3.538;2022-10-16T15:46:31;12.73;;;2.05;;
32705;SDS011;19094;50.972;3.538;2022-10-16T15:48:58;7.53;;;2.40;;
32705;SDS011;19094;50.972;3.538;2022-10-16T15:51:25;3.80;;;1.48;;
32705;SDS011;19094;50.972;3.538;2022-10-16T15:53:57;11.82;;;2.30;;
32705;SDS011;19094;50.972;3.538;2022-10-16T15:56:26;7.97;;;1.75;;
32705;SDS011;19094;50.972;3.538;2022-10-16T15:58:53;5.50;;;1.58;;
32705;SDS011;19094;50.972;3.538;2022-10-16T16:01:22;6.05;;;1.98;;
32705;SDS011;19094;50.972;3.538;2022-10-16T16:03:47;6.18;;;2.38;;
32705;SDS011;19094;50.972;3.538;2022-10-16T16:06:17;14.32;;;4.32;;
32705;SDS011;19094;50.972;3.538;2022-10-16T16:08:42;10.75;;;5.00;;
32705;SDS011;19094;50.972;3.538;2022-10-16T16:11:09;14.85;;;6.15;;
32705;SDS011;19094;50.972;3.538;2022-10-16T16:13:36;13.80;;;5.55;;
32705;SDS011;19094;50.972;3.538;2022-10-16T16:16:08;10.15;;;4.15;;
32705;SDS011;19094;50.972;3.538;2022-10-16T16:18:36;22.55;;;7.13;;
32705;SDS011;19094;50.972;3.538;2022-10-16T16:21:02;12.52;;;5.00;;
32705;SDS011;19094;50.972;3.538;2022-10-16T16:23:29;13.20;;;4.70;;
32705;SDS011;19094;50.972;3.538;2022-10-16T16:26:11;13.52;;;5.88;;
32705;SDS011;19094;50.972;3.538;2022-10-16T16:31:05;12.13;;;3.92;;
32705;SDS011;19094;50.972;3.538;2022-10-16T16:33:31;18.15;;;7.47;;
32705;SDS011;19094;50.972;3.538;2022-10-16T16:36:01;15.63;;;6.68;;
32705;SDS011;19094;50.972;3.538;2022-10-16T16:38:28;17.65;;;5.32;;
32705;SDS011;19094;50.972;3.538;2022-10-16T16:40:54;14.73;;;6.35;;
32705;SDS011;19094;50.972;3.538;2022-10-16T16:43:24;19.35;;;9.52;;
32705;SDS011;19094;50.972;3.538;2022-10-16T16:45:53;19.38;;;6.30;;
32705;SDS011;19094;50.972;3.538;2022-10-16T16:48:18;14.63;;;6.40;;
32705;SDS011;19094;50.972;3.538;2022-10-16T16:50:46;15.88;;;6.78;;
32705;SDS011;19094;50.972;3.538;2022-10-16T16:53:11;14.65;;;6.65;;
32705;SDS011;19094;50.972;3.538;2022-10-16T16:55:38;13.32;;;6.03;;
32705;SDS011;19094;50.972;3.538;2022-10-16T16:58:04;13.85;;;6.00;;
32705;SDS011;19094;50.972;3.538;2022-10-16T17:00:30;14.95;;;6.93;;
32705;SDS011;19094;50.972;3.538;2022-10-16T17:02:56;20.40;;;9.48;;
32705;SDS011;19094;50.972;3.538;2022-10-16T17:05:22;23.05;;;9.70;;
32705;SDS011;19094;50.972;3.538;2022-10-16T17:07:48;20.40;;;8.23;;
32705;SDS011;19094;50.972;3.538;2022-10-16T17:10:14;16.27;;;8.00;;
32705;SDS011;19094;50.972;3.538;2022-10-16T17:12:39;18.38;;;9.18;;
32705;SDS011;19094;50.972;3.538;2022-10-16T17:15:07;20.83;;;10.75;;
32705;SDS011;19094;50.972;3.538;2022-10-16T17:17:33;19.75;;;10.32;;
32705;SDS011;19094;50.972;3.538;2022-10-16T17:19:58;22.90;;;10.27;;
32705;SDS011;19094;50.972;3.538;2022-10-16T17:22:24;26.00;;;9.73;;
32705;SDS011;19094;50.972;3.538;2022-10-16T17:24:51;16.77;;;9.00;;
32705;SDS011;19094;50.972;3.538;2022-10-16T17:27:18;12.48;;;6.65;;
32705;SDS011;19094;50.972;3.538;2022-10-16T17:29:44;16.15;;;6.78;;
32705;SDS011;19094;50.972;3.538;2022-10-16T17:32:14;14.27;;;6.63;;
32705;SDS011;19094;50.972;3.538;2022-10-16T17:34:40;12.85;;;6.55;;
32705;SDS011;19094;50.972;3.538;2022-10-16T17:37:07;17.13;;;7.43;;
32705;SDS011;19094;50.972;3.538;2022-10-16T17:39:33;14.95;;;7.53;;
32705;SDS011;19094;50.972;3.538;2022-10-16T17:41:59;20.95;;;5.50;;
32705;SDS011;19094;50.972;3.538;2022-10-16T17:44:25;7.93;;;3.83;;
32705;SDS011;19094;50.972;3.538;2022-10-16T17:46:52;12.30;;;3.92;;